createdAt,value
2022-09-29T00:01:08.877Z,14.86
2022-09-29T00:03:37.202Z,15.15
2022-09-29T00:06:04.471Z,15.26
2022-09-29T00:08:32.029Z,15.21
2022-09-29T00:10:59.033Z,15.10
2022-09-29T00:13:26.431Z,14.86
2022-09-29T00:15:59.862Z,14.64
2022-09-29T00:18:29.041Z,14.82
2022-09-29T00:21:06.833Z,15.12
2022-09-29T00:23:35.821Z,15.25
2022-09-29T00:26:10.804Z,15.17
2022-09-29T00:28:40.306Z,15.01
2022-09-29T00:31:10.245Z,14.83
2022-09-29T00:33:38.465Z,14.53
2022-09-29T00:36:08.616Z,14.65
2022-09-29T00:38:36.232Z,15.00
2022-09-29T00:41:04.711Z,15.16
2022-09-29T00:43:50.397Z,15.10
2022-09-29T00:46:24.029Z,14.91
2022-09-29T00:48:51.864Z,14.77
2022-09-29T00:51:20.549Z,14.53
2022-09-29T00:53:49.441Z,14.73
2022-09-29T00:56:19.301Z,15.09
2022-09-29T00:58:59.921Z,15.24
2022-09-29T01:01:30.754Z,15.25
2022-09-29T01:04:09.300Z,15.06
2022-09-29T01:06:57.513Z,14.79
2022-09-29T01:09:30.400Z,14.53
2022-09-29T01:11:59.085Z,14.82
2022-09-29T01:14:27.764Z,15.35
2022-09-29T01:16:55.133Z,15.35
2022-09-29T01:19:28.111Z,15.29
2022-09-29T01:22:12.158Z,15.13
2022-09-29T01:25:13.611Z,15.03
2022-09-29T01:27:40.663Z,14.77
2022-09-29T01:30:07.711Z,15.02
2022-09-29T01:32:46.747Z,15.45
2022-09-29T01:35:33.239Z,15.63
2022-09-29T01:38:18.106Z,15.66
2022-09-29T01:40:58.754Z,15.45
2022-09-29T01:43:47.938Z,15.29
2022-09-29T01:46:31.370Z,15.03
2022-09-29T01:49:01.490Z,15.25
2022-09-29T01:51:35.781Z,15.57
2022-09-29T01:54:08.692Z,15.64
2022-09-29T01:56:47.720Z,15.60
2022-09-29T01:59:18.057Z,15.48
2022-09-29T02:01:48.157Z,15.24
2022-09-29T02:04:32.305Z,15.02
2022-09-29T02:07:07.549Z,14.77
2022-09-29T02:09:40.519Z,14.95
2022-09-29T02:12:10.235Z,15.35
2022-09-29T02:14:43.009Z,15.56
2022-09-29T02:17:20.172Z,15.58
2022-09-29T02:19:51.343Z,15.43
2022-09-29T02:22:19.223Z,15.27
2022-09-29T02:24:46.856Z,15.13
2022-09-29T02:27:14.753Z,14.94
2022-09-29T02:29:42.314Z,15.12
2022-09-29T02:32:10.354Z,15.46
2022-09-29T02:34:43.782Z,15.63
2022-09-29T02:37:13.899Z,15.62
2022-09-29T02:39:41.049Z,15.51
2022-09-29T02:42:40.457Z,15.36
2022-09-29T02:45:36.471Z,15.17
2022-09-29T02:48:12.748Z,14.93
2022-09-29T02:51:20.864Z,15.25
2022-09-29T02:54:06.652Z,15.76
2022-09-29T02:56:52.019Z,15.95
2022-09-29T02:59:27.615Z,15.90
2022-09-29T03:01:57.480Z,15.75
2022-09-29T03:04:27.184Z,15.63
2022-09-29T03:06:54.851Z,15.46
2022-09-29T03:09:22.484Z,15.26
2022-09-29T03:11:49.570Z,15.39
2022-09-29T03:14:16.841Z,15.71
2022-09-29T03:16:44.535Z,15.84
2022-09-29T03:19:11.728Z,15.81
2022-09-29T03:21:38.779Z,15.70
2022-09-29T03:24:06.369Z,15.53
2022-09-29T03:26:33.769Z,15.38
2022-09-29T03:29:01.252Z,15.21
2022-09-29T03:31:28.506Z,15.33
2022-09-29T03:33:56.168Z,15.65
2022-09-29T03:36:23.214Z,15.83
2022-09-29T03:38:50.363Z,15.87
2022-09-29T03:41:17.512Z,15.79
2022-09-29T03:43:44.593Z,15.66
2022-09-29T03:46:11.857Z,15.48
2022-09-29T03:48:39.471Z,15.26
2022-09-29T03:51:07.234Z,15.41
2022-09-29T03:53:35.836Z,15.80
2022-09-29T03:56:03.895Z,16.03
2022-09-29T03:58:31.553Z,16.05
2022-09-29T04:00:58.694Z,16.09
2022-09-29T04:03:25.899Z,16.05
2022-09-29T04:05:52.925Z,15.97
2022-09-29T04:08:20.152Z,15.85
2022-09-29T04:10:48.429Z,16.03
2022-09-29T04:13:20.022Z,16.44
2022-09-29T04:15:48.997Z,16.68
2022-09-29T04:18:16.124Z,16.74
2022-09-29T04:20:43.382Z,16.71
2022-09-29T04:23:10.526Z,16.61
2022-09-29T04:25:37.574Z,16.45
2022-09-29T04:28:04.560Z,16.30
2022-09-29T04:30:31.691Z,16.50
2022-09-29T04:32:59.104Z,16.86
2022-09-29T04:35:26.174Z,17.12
2022-09-29T04:37:57.709Z,17.29
2022-09-29T04:40:25.652Z,17.36
2022-09-29T04:42:52.851Z,17.37
2022-09-29T04:45:20.304Z,17.36
2022-09-29T04:47:47.452Z,17.26
2022-09-29T04:50:14.811Z,17.20
2022-09-29T04:52:43.583Z,17.46
2022-09-29T04:55:11.668Z,17.91
2022-09-29T04:57:41.479Z,18.06
2022-09-29T05:00:09.590Z,18.12
2022-09-29T05:02:38.308Z,18.06
2022-09-29T05:05:08.770Z,17.95
2022-09-29T05:07:36.944Z,17.84
2022-09-29T05:10:05.198Z,17.66
2022-09-29T05:12:32.980Z,17.47
2022-09-29T05:15:00.234Z,17.29
2022-09-29T05:17:27.691Z,17.54
2022-09-29T05:19:54.680Z,17.94
2022-09-29T05:22:24.726Z,18.29
2022-09-29T05:24:52.455Z,18.47
2022-09-29T05:27:20.558Z,18.52
2022-09-29T05:29:47.597Z,18.50
2022-09-29T05:32:14.992Z,18.48
2022-09-29T05:34:42.008Z,18.48
2022-09-29T05:37:10.013Z,18.48
2022-09-29T05:39:37.875Z,18.42
2022-09-29T05:42:06.689Z,18.67
2022-09-29T05:44:33.996Z,19.07
2022-09-29T05:47:01.071Z,19.32
2022-09-29T05:49:28.113Z,19.31
2022-09-29T05:51:55.263Z,19.17
2022-09-29T05:54:22.825Z,19.01
2022-09-29T05:56:50.177Z,18.87
2022-09-29T05:59:17.260Z,18.81
2022-09-29T06:01:44.446Z,18.80
2022-09-29T06:04:11.634Z,18.76
2022-09-29T06:06:40.518Z,18.64
2022-09-29T06:09:08.183Z,18.91
2022-09-29T06:11:35.536Z,19.31
2022-09-29T06:14:03.606Z,19.56
2022-09-29T06:16:32.761Z,19.65
2022-09-29T06:19:01.685Z,19.57
2022-09-29T06:21:30.500Z,19.49
2022-09-29T06:23:58.547Z,19.44
2022-09-29T06:26:27.441Z,19.40
2022-09-29T06:28:55.925Z,19.39
2022-09-29T06:31:25.988Z,19.31
2022-09-29T06:33:53.811Z,19.25
2022-09-29T06:36:46.150Z,19.19
2022-09-29T06:39:15.330Z,19.58
2022-09-29T06:41:48.836Z,20.09
2022-09-29T06:44:16.306Z,20.30
2022-09-29T06:46:43.421Z,20.43
2022-09-29T06:49:15.736Z,20.44
2022-09-29T06:51:46.421Z,20.38
2022-09-29T06:54:17.084Z,20.36
2022-09-29T06:56:48.195Z,20.40
2022-09-29T06:59:15.405Z,20.53
2022-09-29T07:01:42.677Z,20.61
2022-09-29T07:04:09.717Z,20.68
2022-09-29T07:06:37.244Z,20.74
2022-09-29T07:09:04.698Z,20.85
2022-09-29T07:11:31.800Z,21.05
2022-09-29T07:13:58.845Z,21.12
2022-09-29T07:16:26.300Z,21.41
2022-09-29T07:18:53.828Z,22.06
2022-09-29T07:21:22.356Z,22.53
2022-09-29T07:23:50.042Z,22.58
2022-09-29T07:26:18.463Z,22.53
2022-09-29T07:28:47.018Z,22.56
2022-09-29T07:31:17.031Z,22.56
2022-09-29T07:33:45.716Z,22.48
2022-09-29T07:36:14.508Z,22.32
2022-09-29T07:38:42.378Z,22.17
2022-09-29T07:41:11.892Z,21.94
2022-09-29T07:43:39.749Z,21.89
2022-09-29T07:46:08.435Z,22.00
2022-09-29T07:48:37.001Z,21.98
2022-09-29T07:51:05.395Z,21.99
2022-09-29T07:53:33.375Z,22.03
2022-09-29T07:56:08.858Z,21.96
2022-09-29T07:58:37.674Z,21.86
2022-09-29T08:01:10.471Z,21.78
2022-09-29T08:03:42.588Z,21.76
2022-09-29T08:06:11.539Z,21.68
2022-09-29T08:08:40.940Z,21.65
2022-09-29T08:11:25.993Z,21.48
2022-09-29T08:13:56.745Z,21.41
2022-09-29T08:16:23.996Z,21.29
2022-09-29T08:18:51.217Z,21.28
2022-09-29T08:21:18.404Z,21.31
2022-09-29T08:26:41.630Z,21.42
2022-09-29T08:40:12.966Z,21.36
2022-09-29T08:45:59.386Z,21.51
2022-09-29T08:48:32.311Z,21.74
2022-09-29T08:51:25.967Z,21.92
2022-09-29T08:56:47.004Z,22.08
2022-09-29T08:59:14.052Z,21.94
2022-09-29T09:01:53.607Z,21.85
2022-09-29T09:04:39.989Z,21.75
2022-09-29T09:07:39.510Z,21.65
2022-09-29T09:10:30.492Z,21.56
2022-09-29T09:13:27.943Z,21.57
2022-09-29T09:16:19.748Z,21.59
2022-09-29T09:19:11.867Z,21.60
2022-09-29T09:21:54.221Z,21.52
2022-09-29T09:24:55.288Z,21.64
2022-09-29T09:27:27.479Z,21.72
2022-09-29T09:30:21.972Z,21.76
2022-09-29T09:33:00.589Z,21.85
2022-09-29T09:36:06.343Z,21.95
2022-09-29T09:38:59.719Z,22.06
2022-09-29T09:41:33.451Z,22.14
2022-09-29T09:44:30.245Z,22.25
2022-09-29T09:47:21.392Z,22.28
2022-09-29T09:49:54.609Z,22.23
2022-09-29T09:52:29.565Z,22.25
2022-09-29T09:55:03.479Z,22.30
2022-09-29T09:57:49.317Z,22.45
2022-09-29T10:00:23.948Z,22.63
2022-09-29T10:02:53.628Z,22.65
2022-09-29T10:05:29.920Z,22.70
2022-09-29T10:07:57.095Z,22.81
2022-09-29T10:10:27.458Z,22.88
2022-09-29T10:13:02.135Z,22.95
2022-09-29T10:15:41.639Z,22.94
2022-09-29T10:18:13.537Z,22.91
2022-09-29T10:20:42.253Z,22.87
2022-09-29T10:23:32.660Z,22.75
2022-09-29T10:26:17.713Z,22.72
2022-09-29T10:28:52.645Z,22.57
2022-09-29T10:31:30.358Z,22.49
2022-09-29T10:34:03.643Z,22.41
2022-09-29T10:36:52.323Z,22.18
2022-09-29T10:39:37.884Z,22.13
2022-09-29T10:42:35.716Z,22.01
2022-09-29T10:45:26.070Z,21.91
2022-09-29T10:47:59.189Z,21.95
2022-09-29T10:50:37.749Z,21.97
2022-09-29T10:53:19.540Z,21.94
2022-09-29T10:55:54.836Z,21.88
2022-09-29T10:58:44.590Z,21.92
2022-09-29T11:01:23.813Z,21.93
2022-09-29T11:03:55.553Z,21.96
2022-09-29T11:06:26.355Z,22.04
2022-09-29T11:09:02.697Z,22.13
2022-09-29T11:11:34.586Z,22.20
2022-09-29T11:14:02.083Z,22.33
2022-09-29T11:16:31.219Z,22.40
2022-09-29T11:19:08.687Z,22.41
2022-09-29T11:22:03.457Z,22.41
2022-09-29T11:24:49.348Z,22.50
2022-09-29T11:27:40.151Z,22.42
2022-09-29T11:30:23.253Z,22.54
2022-09-29T11:32:53.394Z,22.54
2022-09-29T11:35:29.866Z,22.58
2022-09-29T11:38:21.956Z,22.65
2022-09-29T11:41:11.576Z,22.71
2022-09-29T11:44:24.500Z,22.67
2022-09-29T11:46:55.338Z,22.77
2022-09-29T11:49:34.771Z,22.91
2022-09-29T11:52:20.764Z,22.87
2022-09-29T11:55:12.080Z,22.82
2022-09-29T11:57:45.011Z,22.99
2022-09-29T12:00:18.363Z,23.07
2022-09-29T12:03:00.051Z,23.14
2022-09-29T12:05:33.856Z,23.11
2022-09-29T12:08:19.542Z,23.13
2022-09-29T12:11:17.916Z,23.14
2022-09-29T12:13:52.344Z,23.06
2022-09-29T12:16:23.217Z,22.97
2022-09-29T12:19:16.807Z,23.10
2022-09-29T12:21:52.605Z,23.18
2022-09-29T12:24:31.427Z,23.21
2022-09-29T12:27:00.999Z,23.29
2022-09-29T12:29:37.198Z,23.30
2022-09-29T12:32:24.325Z,23.28
2022-09-29T12:35:10.305Z,23.22
2022-09-29T12:37:52.610Z,23.14
2022-09-29T12:40:30.404Z,23.13
2022-09-29T12:43:09.903Z,23.20
2022-09-29T12:45:46.501Z,23.28
2022-09-29T12:48:26.326Z,23.36
2022-09-29T12:51:20.758Z,23.45
2022-09-29T12:54:22.494Z,23.43
2022-09-29T12:57:00.115Z,23.37
2022-09-29T12:59:38.340Z,23.45
2022-09-29T13:02:28.179Z,23.38
2022-09-29T13:04:58.326Z,23.34
2022-09-29T13:07:46.876Z,23.30
2022-09-29T13:10:26.109Z,23.21
2022-09-29T13:13:20.088Z,23.20
2022-09-29T13:16:21.583Z,23.14
2022-09-29T13:18:59.654Z,23.02
2022-09-29T13:21:52.401Z,23.06
2022-09-29T13:24:48.800Z,23.10
2022-09-29T13:27:42.221Z,23.21
2022-09-29T13:30:13.153Z,23.22
2022-09-29T13:32:58.504Z,23.14
2022-09-29T13:35:27.688Z,23.09
2022-09-29T13:38:05.041Z,22.90
2022-09-29T13:40:33.129Z,22.87
2022-09-29T13:43:03.311Z,22.87
2022-09-29T13:45:34.604Z,22.84
2022-09-29T13:48:18.110Z,22.71
2022-09-29T13:50:55.767Z,22.69
2022-09-29T13:53:23.097Z,22.77
2022-09-29T13:55:50.399Z,22.71
2022-09-29T13:58:25.648Z,22.72
2022-09-29T14:00:53.867Z,22.77
2022-09-29T14:03:32.945Z,22.75
2022-09-29T14:06:41.497Z,22.80
2022-09-29T14:09:20.400Z,22.90
2022-09-29T14:11:56.274Z,22.93
2022-09-29T14:14:30.138Z,22.77
2022-09-29T14:17:25.980Z,22.68
2022-09-29T14:20:11.750Z,22.57
2022-09-29T14:22:38.718Z,22.48
2022-09-29T14:25:09.111Z,22.40
2022-09-29T14:27:54.940Z,22.34
2022-09-29T14:30:41.372Z,22.27
2022-09-29T14:33:16.970Z,22.26
2022-09-29T14:35:55.359Z,22.24
2022-09-29T14:38:26.551Z,22.20
2022-09-29T14:41:02.366Z,22.16
2022-09-29T14:43:44.227Z,22.15
2022-09-29T14:46:32.975Z,22.07
2022-09-29T14:49:34.097Z,22.01
2022-09-29T14:52:17.463Z,21.94
2022-09-29T14:55:06.404Z,21.94
2022-09-29T14:58:10.872Z,21.78
2022-09-29T15:00:54.383Z,21.67
2022-09-29T15:03:35.109Z,21.61
2022-09-29T15:06:14.945Z,21.55
2022-09-29T15:08:52.312Z,21.45
2022-09-29T15:11:49.051Z,21.41
2022-09-29T15:14:39.645Z,21.39
2022-09-29T15:17:07.949Z,21.39
2022-09-29T15:19:55.444Z,21.37
2022-09-29T15:22:53.288Z,21.26
2022-09-29T15:25:32.365Z,21.10
2022-09-29T15:28:05.615Z,21.09
2022-09-29T15:30:33.381Z,21.00
2022-09-29T15:33:07.393Z,20.95
2022-09-29T15:35:40.954Z,20.87
2022-09-29T15:38:11.022Z,20.79
2022-09-29T15:40:38.100Z,20.71
2022-09-29T15:43:22.186Z,20.70
2022-09-29T15:46:01.292Z,20.66
2022-09-29T15:48:31.160Z,20.60
2022-09-29T15:50:58.521Z,20.53
2022-09-29T15:53:27.939Z,20.51
2022-09-29T15:55:56.011Z,20.44
2022-09-29T15:58:26.340Z,20.36
2022-09-29T16:01:06.702Z,20.35
2022-09-29T16:03:57.784Z,20.27
2022-09-29T16:06:31.926Z,20.22
2022-09-29T16:09:04.411Z,20.16
2022-09-29T16:11:33.477Z,20.15
2022-09-29T16:14:04.122Z,20.10
2022-09-29T16:16:37.650Z,19.99
2022-09-29T16:19:28.674Z,19.96
2022-09-29T16:21:59.711Z,19.88
2022-09-29T16:24:32.450Z,19.85
2022-09-29T16:26:59.841Z,19.84
2022-09-29T16:29:30.054Z,19.76
2022-09-29T16:31:58.570Z,19.72
2022-09-29T16:34:32.339Z,19.61
2022-09-29T16:37:20.261Z,19.57
2022-09-29T16:39:49.578Z,19.49
2022-09-29T16:42:29.816Z,19.43
2022-09-29T16:44:57.202Z,19.38
2022-09-29T16:47:27.847Z,19.34
2022-09-29T16:50:09.326Z,19.29
2022-09-29T16:52:47.557Z,19.27
2022-09-29T16:55:28.614Z,19.22
2022-09-29T16:58:10.262Z,19.20
2022-09-29T17:00:38.136Z,19.14
2022-09-29T17:03:05.826Z,19.14
2022-09-29T17:05:40.418Z,19.13
2022-09-29T17:08:17.962Z,19.13
2022-09-29T17:10:44.944Z,19.16
2022-09-29T17:13:14.847Z,19.14
2022-09-29T17:15:45.177Z,19.11
2022-09-29T17:18:13.410Z,19.18
2022-09-29T17:20:40.768Z,19.20
2022-09-29T17:23:09.113Z,19.17
2022-09-29T17:25:38.332Z,19.21
2022-09-29T17:28:15.500Z,19.22
2022-09-29T17:30:47.901Z,19.20
2022-09-29T17:33:17.411Z,19.22
2022-09-29T17:35:49.321Z,19.21
2022-09-29T17:38:20.609Z,19.22
2022-09-29T17:41:02.625Z,19.24
2022-09-29T17:43:34.017Z,19.22
2022-09-29T17:46:01.410Z,19.24
2022-09-29T19:28:27.173Z,15.47
2022-09-29T19:30:56.129Z,17.29
2022-09-29T19:33:23.618Z,18.37
2022-09-29T19:35:54.914Z,18.97
2022-09-29T19:38:22.833Z,19.22
2022-09-29T19:40:51.856Z,19.35
2022-09-29T19:43:21.711Z,19.40
2022-09-29T19:45:50.258Z,19.40
2022-09-29T19:48:20.163Z,19.36
2022-09-29T19:51:07.290Z,19.33
2022-09-29T19:53:35.459Z,19.25
2022-09-29T19:56:08.555Z,19.59
2022-09-29T19:58:38.662Z,20.08
2022-09-29T20:01:07.963Z,20.22
2022-09-29T20:03:35.024Z,20.19
2022-09-29T20:06:04.995Z,20.08
2022-09-29T20:08:33.638Z,19.88
2022-09-29T20:11:11.427Z,19.72
2022-09-29T20:13:39.639Z,19.58
2022-09-29T20:16:07.876Z,19.49
2022-09-29T20:18:36.864Z,19.29
2022-09-29T20:21:12.761Z,19.61
2022-09-29T20:23:39.831Z,20.04
2022-09-29T20:26:10.922Z,20.17
2022-09-29T20:28:38.935Z,20.10
2022-09-29T20:31:07.893Z,19.97
2022-09-29T20:33:36.771Z,19.83
2022-09-29T20:36:05.385Z,19.71
2022-09-29T20:38:34.612Z,19.60
2022-09-29T20:41:02.998Z,19.43
2022-09-29T20:43:30.425Z,19.64
2022-09-29T20:46:05.617Z,20.05
2022-09-29T20:48:37.856Z,20.28
2022-09-29T20:51:08.785Z,20.27
2022-09-29T20:53:40.704Z,20.20
2022-09-29T20:56:17.723Z,20.05
2022-09-29T20:58:47.169Z,19.87
2022-09-29T21:01:23.194Z,19.77
2022-09-29T21:03:55.664Z,19.59
2022-09-29T21:06:25.706Z,19.88
2022-09-29T21:08:52.870Z,20.31
2022-09-29T21:11:21.124Z,20.44
2022-09-29T21:13:53.011Z,20.44
2022-09-29T21:16:20.161Z,20.37
2022-09-29T21:18:47.233Z,20.23
2022-09-29T21:21:14.587Z,20.08
2022-09-29T21:23:42.980Z,19.89
2022-09-29T21:26:15.796Z,19.67
2022-09-29T21:28:54.432Z,19.88
2022-09-29T21:31:24.526Z,20.28
2022-09-29T21:34:00.758Z,20.47
2022-09-29T21:36:30.115Z,20.47
2022-09-29T21:39:02.871Z,20.36
2022-09-29T21:41:34.911Z,20.17
2022-09-29T21:44:06.594Z,19.99
2022-09-29T21:46:34.891Z,19.83
2022-09-29T21:49:04.147Z,19.67
2022-09-29T21:51:35.014Z,19.94
2022-09-29T21:54:03.115Z,20.42
2022-09-29T21:56:34.599Z,20.53
2022-09-29T21:59:02.082Z,20.48
2022-09-29T22:01:29.214Z,20.45
2022-09-29T22:03:57.437Z,20.32
2022-09-29T22:06:30.943Z,20.13
2022-09-29T22:08:59.257Z,19.97
2022-09-29T22:11:31.718Z,19.72
2022-09-29T22:14:01.240Z,19.93
2022-09-29T22:16:31.324Z,20.24
2022-09-29T22:19:22.110Z,20.42
2022-09-29T22:21:47.379Z,20.37
2022-09-29T22:24:14.394Z,20.20
2022-09-29T22:26:41.619Z,20.00
2022-09-29T22:29:08.723Z,19.81
2022-09-29T22:31:35.901Z,19.63
2022-09-29T22:34:05.317Z,19.85
2022-09-29T22:36:34.769Z,20.24
2022-09-29T22:39:04.398Z,20.46
2022-09-29T22:41:33.014Z,20.45
2022-09-29T22:44:00.976Z,20.36
2022-09-29T22:46:30.388Z,20.20
2022-09-29T22:48:58.380Z,20.06
2022-09-29T22:51:25.412Z,19.85
2022-09-29T22:53:52.522Z,20.06
2022-09-29T22:56:28.421Z,20.41
2022-09-29T22:59:01.778Z,20.54
2022-09-29T23:01:29.351Z,20.49
2022-09-29T23:03:56.868Z,20.39
2022-09-29T23:06:23.971Z,20.26
2022-09-29T23:08:51.098Z,20.14
2022-09-29T23:11:20.019Z,19.96
2022-09-29T23:13:47.580Z,20.17
2022-09-29T23:16:16.853Z,20.54
2022-09-29T23:18:45.976Z,20.78
2022-09-29T23:21:19.649Z,20.83
2022-09-29T23:23:48.404Z,20.72
2022-09-29T23:26:16.542Z,20.61
2022-09-29T23:28:43.632Z,20.45
2022-09-29T23:31:11.650Z,20.14
2022-09-29T23:33:38.743Z,20.29
2022-09-29T23:36:09.995Z,20.65
2022-09-29T23:38:56.971Z,20.95
2022-09-29T23:41:27.263Z,20.97
2022-09-29T23:43:58.088Z,20.82
2022-09-29T23:46:27.072Z,20.67
2022-09-29T23:48:54.094Z,20.53
2022-09-29T23:51:21.105Z,20.32
2022-09-29T23:53:48.104Z,20.48
2022-09-29T23:56:15.139Z,20.88
2022-09-29T23:58:42.484Z,21.09
